createdAt,value
2018-05-24T00:00:46.622Z,1.87
2018-05-24T00:03:14.869Z,0.60
2018-05-24T00:05:43.879Z,1.70
2018-05-24T00:08:12.132Z,1.23
2018-05-24T00:10:41.144Z,2.50
2018-05-24T00:13:09.400Z,0.77
2018-05-24T00:15:38.417Z,2.00
2018-05-24T00:18:07.425Z,0.70
2018-05-24T00:20:35.662Z,2.20
2018-05-24T00:23:04.683Z,1.83
2018-05-24T00:25:32.936Z,1.30
2018-05-24T00:28:01.952Z,1.57
2018-05-24T00:30:30.198Z,1.10
2018-05-24T00:32:58.455Z,2.00
2018-05-24T00:35:26.700Z,2.10
2018-05-24T00:37:54.947Z,4.60
2018-05-24T00:40:23.201Z,1.67
2018-05-24T00:42:52.219Z,2.17
2018-05-24T00:45:20.544Z,1.13
2018-05-24T00:47:49.480Z,2.60
2018-05-24T00:50:17.732Z,0.87
2018-05-24T00:52:45.985Z,0.90
2018-05-24T00:55:43.977Z,1.60
2018-05-24T00:58:13.000Z,1.10
2018-05-24T01:00:41.252Z,1.97
2018-05-24T01:03:10.272Z,1.73
2018-05-24T01:05:38.523Z,1.07
2018-05-24T01:08:07.548Z,0.57
2018-05-24T01:10:35.791Z,3.97
2018-05-24T01:13:04.912Z,2.50
2018-05-24T01:15:33.162Z,2.27
2018-05-24T01:18:02.168Z,2.30
2018-05-24T01:20:31.189Z,1.90
2018-05-24T01:22:59.446Z,1.00
2018-05-24T01:25:27.701Z,1.60
2018-05-24T01:27:56.703Z,2.13
2018-05-24T01:30:25.728Z,1.53
2018-05-24T01:32:53.987Z,1.50
2018-05-24T01:35:22.238Z,2.70
2018-05-24T01:37:51.837Z,3.23
2018-05-24T01:40:20.084Z,2.30
2018-05-24T01:42:48.335Z,0.87
2018-05-24T01:45:16.587Z,1.63
2018-05-24T01:47:44.840Z,1.87
2018-05-24T01:50:13.091Z,2.03
2018-05-24T01:52:41.338Z,2.80
2018-05-24T01:55:09.592Z,1.93
2018-05-24T01:57:37.843Z,2.30
2018-05-24T02:00:06.859Z,2.30
2018-05-24T02:02:35.115Z,2.10
2018-05-24T02:05:04.132Z,2.70
2018-05-24T02:07:32.368Z,1.50
2018-05-24T02:10:00.635Z,1.10
2018-05-24T02:12:28.880Z,2.60
2018-05-24T02:14:57.128Z,1.73
2018-05-24T02:17:25.379Z,3.47
2018-05-24T02:19:54.396Z,1.67
2018-05-24T02:22:23.408Z,2.30
2018-05-24T02:24:51.655Z,2.30
2018-05-24T02:27:20.673Z,3.03
2018-05-24T02:29:48.915Z,0.97
2018-05-24T02:32:17.932Z,1.60
2018-05-24T02:34:46.179Z,2.00
2018-05-24T02:37:14.431Z,1.90
2018-05-24T02:39:42.680Z,2.67
2018-05-24T02:42:10.927Z,1.90
2018-05-24T02:44:39.175Z,2.17
2018-05-24T02:47:07.420Z,2.23
2018-05-24T02:49:35.662Z,2.27
2018-05-24T02:52:03.921Z,2.63
2018-05-24T02:54:32.924Z,3.27
2018-05-24T02:57:01.179Z,2.20
2018-05-24T02:59:30.188Z,1.77
2018-05-24T03:01:59.205Z,3.00
2018-05-24T03:04:27.451Z,2.87
2018-05-24T03:06:56.473Z,3.33
2018-05-24T03:09:24.715Z,2.20
2018-05-24T03:11:53.755Z,1.47
2018-05-24T03:14:22.062Z,3.07
2018-05-24T03:16:51.007Z,3.13
2018-05-24T03:19:19.255Z,3.70
2018-05-24T03:21:48.265Z,2.07
2018-05-24T03:24:16.515Z,3.60
2018-05-24T03:26:45.524Z,3.67
2018-05-24T03:29:14.543Z,2.60
2018-05-24T03:31:42.785Z,3.10
2018-05-24T03:34:11.803Z,2.60
2018-05-24T03:36:40.049Z,1.67
2018-05-24T03:39:09.063Z,2.80
2018-05-24T03:41:37.315Z,2.40
2018-05-24T03:44:06.344Z,2.97
2018-05-24T03:46:34.592Z,1.67
2018-05-24T03:49:03.611Z,1.50
2018-05-24T03:51:31.857Z,3.57
2018-05-24T03:54:00.884Z,1.83
2018-05-24T03:56:29.120Z,4.60
2018-05-24T04:02:20.060Z,3.93
2018-05-24T04:04:54.396Z,2.43
2018-05-24T04:07:22.638Z,3.43
2018-05-24T04:09:50.887Z,3.20
2018-05-24T04:12:19.135Z,2.60
2018-05-24T04:14:47.384Z,2.13
2018-05-24T04:17:16.392Z,3.10
2018-05-24T04:19:44.639Z,2.53
2018-05-24T04:22:13.643Z,2.43
2018-05-24T04:24:42.655Z,2.40
2018-05-24T04:27:10.900Z,2.73
2018-05-24T04:29:39.910Z,3.53
2018-05-24T04:32:08.160Z,2.60
2018-05-24T04:34:36.413Z,4.60
2018-05-24T04:37:04.657Z,3.00
2018-05-24T04:39:32.896Z,2.47
2018-05-24T04:42:01.913Z,3.47
2018-05-24T04:44:30.158Z,3.63
2018-05-24T04:46:59.180Z,2.43
2018-05-24T04:49:27.420Z,2.07
2018-05-24T04:51:55.663Z,2.40
2018-05-24T04:54:23.915Z,1.47
2018-05-24T04:56:52.159Z,3.00
2018-05-24T04:59:21.181Z,4.07
2018-05-24T05:01:49.436Z,4.30
2018-05-24T05:04:18.439Z,1.77
2018-05-24T05:06:46.688Z,2.60
2018-05-24T05:09:15.698Z,1.93
2018-05-24T05:11:43.956Z,2.33
2018-05-24T05:14:12.192Z,4.47
2018-05-24T05:16:40.452Z,5.13
2018-05-24T05:19:08.699Z,2.20
2018-05-24T05:21:37.711Z,3.40
2018-05-24T05:24:05.956Z,3.00
2018-05-24T05:26:34.964Z,3.30
2018-05-24T05:29:03.225Z,4.67
2018-05-24T05:31:32.236Z,2.90
2018-05-24T05:34:00.476Z,2.37
2018-05-24T05:36:28.732Z,4.57
2018-05-24T05:38:56.973Z,3.70
2018-05-24T05:41:25.236Z,2.53
2018-05-24T05:43:53.479Z,3.50
2018-05-24T05:46:21.720Z,2.30
2018-05-24T05:48:50.063Z,3.27
2018-05-24T05:51:18.313Z,1.57
2018-05-24T05:53:47.324Z,2.87
2018-05-24T05:56:16.333Z,3.07
2018-05-24T05:58:44.590Z,3.17
2018-05-24T06:01:13.602Z,1.97
2018-05-24T06:03:41.848Z,2.60
2018-05-24T06:06:10.089Z,2.80
2018-05-24T06:08:38.342Z,3.40
2018-05-24T06:11:06.595Z,2.10
2018-05-24T06:13:34.844Z,1.37
2018-05-24T06:16:03.843Z,2.43
2018-05-24T06:18:32.859Z,1.77
2018-05-24T06:21:01.102Z,2.07
2018-05-24T06:23:29.360Z,2.90
2018-05-24T06:25:57.597Z,2.33
2018-05-24T06:28:25.922Z,2.67
2018-05-24T06:30:54.147Z,2.17
2018-05-24T06:33:22.387Z,4.73
2018-05-24T06:35:51.404Z,3.20
2018-05-24T06:38:19.655Z,2.77
2018-05-24T06:40:48.106Z,3.70
2018-05-24T06:43:16.370Z,2.33
2018-05-24T06:45:44.973Z,3.77
2018-05-24T06:48:13.232Z,3.10
2018-05-24T06:50:41.481Z,4.37
2018-05-24T06:53:09.733Z,1.80
2018-05-24T06:55:38.760Z,3.40
2018-05-24T06:58:06.993Z,2.00
2018-05-24T07:00:36.084Z,2.40
2018-05-24T07:03:04.540Z,2.93
2018-05-24T07:05:32.951Z,0.80
2018-05-24T07:08:02.023Z,3.10
2018-05-24T07:10:30.324Z,2.13
2018-05-24T07:12:59.358Z,3.53
2018-05-24T07:15:27.632Z,5.10
2018-05-24T07:17:55.880Z,3.57
2018-05-24T07:20:24.129Z,3.90
2018-05-24T07:22:52.468Z,1.43
2018-05-24T07:25:20.712Z,2.60
2018-05-24T07:27:48.958Z,1.50
2018-05-24T07:30:17.240Z,1.23
2018-05-24T07:32:45.476Z,3.43
2018-05-24T07:35:16.284Z,2.60
2018-05-24T07:37:44.674Z,2.13
2018-05-24T07:40:12.946Z,2.03
2018-05-24T07:42:41.192Z,2.17
2018-05-24T07:45:10.223Z,0.90
2018-05-24T07:47:38.464Z,3.80
2018-05-24T07:50:07.485Z,1.90
2018-05-24T07:52:35.739Z,1.53
2018-05-24T07:55:04.751Z,2.20
2018-05-24T07:57:33.003Z,1.13
2018-05-24T08:00:01.251Z,1.03
2018-05-24T08:02:29.496Z,1.47
2018-05-24T08:04:57.751Z,1.20
2018-05-24T08:07:26.001Z,1.40
2018-05-24T08:09:55.021Z,1.47
2018-05-24T08:12:23.272Z,0.80
2018-05-24T08:14:52.276Z,0.97
2018-05-24T08:17:20.536Z,0.57
2018-05-24T08:19:49.545Z,1.43
2018-05-24T08:22:17.796Z,0.47
2018-05-24T08:24:46.806Z,0.80
2018-05-24T08:27:15.057Z,1.33
2018-05-24T08:29:43.307Z,0.70
2018-05-24T08:32:11.549Z,1.90
2018-05-24T08:34:39.805Z,2.53
2018-05-24T08:37:08.816Z,0.70
2018-05-24T08:39:37.057Z,0.87
2018-05-24T08:42:05.298Z,0.87
2018-05-24T08:44:33.548Z,0.73
2018-05-24T08:47:01.892Z,0.90
2018-05-24T08:49:30.809Z,0.87
2018-05-24T08:51:59.048Z,0.70
2018-05-24T08:54:27.306Z,0.80
2018-05-24T08:56:55.539Z,1.37
2018-05-24T08:59:23.791Z,0.60
2018-05-24T09:01:52.049Z,0.90
2018-05-24T09:04:20.292Z,0.40
2018-05-24T09:06:48.540Z,1.10
2018-05-24T09:09:16.796Z,0.77
2018-05-24T09:11:45.812Z,0.47
2018-05-24T09:14:14.076Z,1.33
2018-05-24T09:16:42.330Z,0.80
2018-05-24T09:19:11.356Z,0.80
2018-05-24T09:21:39.594Z,1.23
2018-05-24T09:24:08.620Z,0.60
2018-05-24T09:26:36.861Z,0.87
2018-05-24T09:29:05.887Z,1.37
2018-05-24T09:31:34.133Z,0.40
2018-05-24T09:34:03.136Z,1.13
2018-05-24T09:36:32.149Z,1.10
2018-05-24T09:39:00.391Z,1.67
2018-05-24T09:41:29.408Z,1.00
2018-05-24T09:43:57.647Z,0.60
2018-05-24T09:46:25.896Z,0.40
2018-05-24T09:48:54.892Z,0.70
2018-05-24T09:51:23.141Z,0.90
2018-05-24T09:53:51.390Z,0.87
2018-05-24T09:56:20.408Z,0.80
2018-05-24T09:58:48.651Z,1.10
2018-05-24T10:01:17.667Z,0.60
2018-05-24T10:03:45.909Z,0.70
2018-05-24T10:06:14.159Z,0.50
2018-05-24T10:08:42.404Z,0.63
2018-05-24T10:11:10.655Z,0.90
2018-05-24T10:13:39.674Z,1.20
2018-05-24T10:16:07.943Z,0.70
2018-05-24T10:18:36.928Z,0.70
2018-05-24T10:21:05.181Z,1.20
2018-05-24T10:23:33.509Z,0.90
2018-05-24T10:26:01.675Z,0.93
2018-05-24T10:28:30.435Z,1.00
2018-05-24T10:30:59.521Z,1.43
2018-05-24T10:33:28.562Z,0.60
2018-05-24T10:35:57.053Z,0.60
2018-05-24T10:38:25.295Z,0.63
2018-05-24T10:40:53.606Z,1.03
2018-05-24T10:43:21.993Z,1.03
2018-05-24T10:45:51.048Z,0.83
2018-05-24T10:48:19.508Z,0.60
2018-05-24T10:50:48.653Z,1.47
2018-05-24T10:53:16.931Z,1.57
2018-05-24T10:55:45.286Z,0.77
2018-05-24T10:58:13.570Z,1.80
2018-05-24T11:00:41.815Z,0.97
2018-05-24T11:03:10.862Z,0.93
2018-05-24T11:05:39.100Z,0.90
2018-05-24T11:08:07.364Z,0.77
2018-05-24T11:10:36.379Z,1.17
2018-05-24T11:13:04.628Z,1.53
2018-05-24T11:15:33.668Z,1.20
2018-05-24T11:18:01.914Z,0.80
2018-05-24T11:20:30.162Z,1.43
2018-05-24T11:22:58.411Z,0.90
2018-05-24T11:25:26.672Z,2.27
2018-05-24T11:27:54.917Z,1.13
2018-05-24T11:30:23.166Z,0.70
2018-05-24T11:32:51.415Z,1.60
2018-05-24T11:35:19.683Z,0.90
2018-05-24T11:37:48.152Z,0.50
2018-05-24T11:40:16.396Z,0.63
2018-05-24T11:42:44.666Z,0.90
2018-05-24T11:45:13.682Z,0.70
2018-05-24T11:47:41.937Z,1.03
2018-05-24T11:50:10.211Z,1.13
2018-05-24T11:52:39.221Z,1.73
2018-05-24T11:55:07.475Z,1.23
2018-05-24T11:57:36.533Z,0.67
2018-05-24T12:00:04.900Z,1.03
2018-05-24T12:02:33.203Z,0.50
2018-05-24T12:05:01.505Z,1.23
2018-05-24T12:07:30.608Z,1.40
2018-05-24T12:09:58.906Z,0.40
2018-05-24T12:12:27.192Z,1.37
2018-05-24T12:14:55.472Z,1.27
2018-05-24T12:17:23.703Z,0.50
2018-05-24T12:19:52.712Z,0.50
2018-05-24T12:22:20.952Z,1.50
2018-05-24T12:24:49.973Z,0.60
2018-05-24T12:27:18.222Z,1.10
2018-05-24T12:29:46.469Z,0.63
2018-05-24T12:32:14.711Z,1.63
2018-05-24T12:34:43.069Z,1.27
2018-05-24T12:37:11.397Z,0.50
2018-05-24T12:39:39.711Z,1.00
2018-05-24T12:42:09.012Z,0.57
2018-05-24T12:44:38.033Z,1.17
2018-05-24T12:47:06.309Z,0.70
2018-05-24T12:49:34.567Z,1.10
2018-05-24T12:52:03.617Z,1.13
2018-05-24T12:54:31.877Z,1.37
2018-05-24T12:57:00.133Z,0.50
2018-05-24T12:59:28.424Z,1.60
2018-05-24T13:01:56.688Z,0.60
2018-05-24T13:04:24.950Z,1.00
2018-05-24T13:06:53.204Z,0.60
2018-05-24T13:09:22.246Z,0.50
2018-05-24T13:11:50.522Z,0.67
2018-05-24T13:14:18.782Z,0.60
2018-05-24T13:16:47.052Z,0.50
2018-05-24T13:19:15.298Z,0.60
2018-05-24T13:21:44.307Z,1.43
2018-05-24T13:24:12.556Z,0.90
2018-05-24T13:26:40.808Z,1.00
2018-05-24T13:29:09.812Z,0.80
2018-05-24T13:31:38.109Z,0.60
2018-05-24T13:34:06.343Z,0.50
2018-05-24T13:36:34.598Z,0.60
2018-05-24T13:39:02.851Z,1.17
2018-05-24T13:41:31.873Z,0.50
2018-05-24T13:44:00.116Z,0.67
2018-05-24T13:46:29.133Z,0.70
2018-05-24T13:48:57.379Z,1.43
2018-05-24T13:51:26.388Z,0.40
2018-05-24T13:53:54.634Z,0.70
2018-05-24T13:56:22.875Z,0.90
2018-05-24T13:58:51.114Z,0.70
2018-05-24T14:01:19.363Z,0.50
2018-05-24T14:03:48.379Z,0.60
2018-05-24T14:06:16.619Z,0.97
2018-05-24T14:08:44.935Z,0.60
2018-05-24T14:11:13.174Z,1.57
2018-05-24T14:13:41.426Z,0.87
2018-05-24T14:16:09.674Z,0.70
2018-05-24T14:18:37.924Z,0.57
2018-05-24T14:21:06.935Z,0.57
2018-05-24T14:23:35.180Z,0.87
2018-05-24T14:26:04.200Z,1.67
2018-05-24T14:28:33.205Z,0.63
2018-05-24T14:31:01.443Z,1.17
2018-05-24T14:33:30.460Z,0.80
2018-05-24T14:35:58.701Z,0.70
2018-05-24T14:38:26.947Z,1.07
2018-05-24T14:40:55.194Z,0.40
2018-05-24T14:43:23.438Z,2.10
2018-05-24T14:45:52.448Z,1.83
2018-05-24T14:48:21.514Z,0.40
2018-05-24T14:50:49.711Z,0.70
2018-05-24T14:53:18.738Z,1.00
2018-05-24T14:55:46.974Z,0.90
2018-05-24T14:58:15.216Z,1.20
2018-05-24T15:00:43.463Z,0.87
2018-05-24T15:03:11.708Z,0.60
2018-05-24T15:05:40.720Z,1.17
2018-05-24T15:08:08.977Z,0.87
2018-05-24T15:10:37.993Z,0.80
2018-05-24T15:13:06.237Z,0.60
2018-05-24T15:15:35.253Z,0.60
2018-05-24T15:18:03.492Z,1.20
2018-05-24T15:20:31.740Z,1.43
2018-05-24T15:22:59.983Z,1.53
2018-05-24T15:25:28.227Z,1.77
2018-05-24T15:27:57.231Z,1.17
2018-05-24T15:30:26.253Z,1.17
2018-05-24T15:32:54.487Z,0.90
2018-05-24T15:35:22.736Z,0.93
2018-05-24T15:37:50.979Z,1.07
2018-05-24T15:40:19.223Z,0.60
2018-05-24T15:42:48.235Z,2.33
2018-05-24T15:45:16.487Z,1.57
2018-05-24T15:47:45.500Z,1.10
2018-05-24T15:50:13.752Z,0.80
2018-05-24T15:52:42.781Z,1.50
2018-05-24T15:55:11.034Z,1.17
2018-05-24T15:57:40.034Z,0.97
2018-05-24T16:00:08.281Z,2.10
2018-05-24T16:02:36.528Z,1.60
2018-05-24T16:05:04.774Z,1.07
2018-05-24T16:07:33.026Z,1.10
2018-05-24T16:10:02.028Z,1.83
2018-05-24T16:12:30.278Z,1.33
2018-05-24T16:14:58.519Z,0.80
2018-05-24T16:17:26.764Z,1.27
2018-05-24T16:19:55.015Z,0.60
2018-05-24T16:22:24.035Z,0.70
2018-05-24T16:24:52.283Z,0.77
2018-05-24T16:27:21.296Z,0.60
2018-05-24T16:29:49.544Z,1.47
2018-05-24T16:32:17.808Z,1.40
2018-05-24T16:34:46.052Z,0.93
2018-05-24T16:37:14.304Z,0.70
2018-05-24T16:39:42.543Z,1.20
2018-05-24T16:42:10.791Z,0.80
2018-05-24T16:44:39.038Z,1.63
2018-05-24T16:47:07.291Z,0.80
2018-05-24T16:49:36.304Z,1.90
2018-05-24T16:52:04.559Z,0.90
2018-05-24T16:54:33.581Z,0.87
2018-05-24T16:57:01.829Z,1.47
2018-05-24T16:59:30.832Z,1.27
2018-05-24T17:01:59.099Z,1.33
2018-05-24T17:04:28.103Z,0.70
2018-05-24T17:06:56.348Z,0.90
2018-05-24T17:09:25.371Z,1.30
2018-05-24T17:11:53.616Z,1.00
2018-05-24T17:14:22.641Z,1.40
2018-05-24T17:16:50.880Z,1.30
2018-05-24T17:19:19.128Z,0.83
2018-05-24T17:21:47.377Z,3.03
2018-05-24T17:24:15.624Z,0.70
2018-05-24T17:26:44.636Z,1.47
2018-05-24T17:29:12.888Z,1.17
2018-05-24T17:31:41.909Z,0.70
2018-05-24T17:34:10.160Z,1.00
2018-05-24T17:36:39.277Z,0.50
2018-05-24T17:39:08.232Z,1.07
2018-05-24T17:41:37.261Z,1.17
2018-05-24T17:44:05.507Z,1.23
2018-05-24T17:46:34.523Z,2.20
2018-05-24T17:49:02.777Z,1.10
2018-05-24T17:51:31.789Z,1.57
2018-05-24T17:54:00.043Z,1.33
2018-05-24T17:56:29.044Z,1.70
2018-05-24T17:58:58.063Z,1.53
2018-05-24T18:01:26.305Z,1.77
2018-05-24T18:03:55.350Z,2.47
2018-05-24T18:06:23.585Z,1.83
2018-05-24T18:08:52.596Z,2.40
2018-05-24T18:11:20.852Z,1.73
2018-05-24T18:13:49.856Z,1.23
2018-05-24T18:16:18.103Z,1.10
2018-05-24T18:18:47.123Z,0.80
2018-05-24T18:21:15.399Z,1.33
2018-05-24T18:23:43.619Z,1.40
2018-05-24T18:26:11.880Z,1.50
2018-05-24T18:28:40.133Z,3.60
2018-05-24T18:31:08.371Z,2.30
2018-05-24T18:33:36.626Z,4.33
2018-05-24T18:36:04.888Z,1.13
2018-05-24T18:38:33.111Z,1.47
2018-05-24T18:41:01.421Z,1.27
2018-05-24T18:43:29.675Z,1.57
2018-05-24T18:45:58.687Z,1.03
2018-05-24T18:48:26.930Z,2.30
2018-05-24T18:50:55.946Z,1.80
2018-05-24T18:53:24.197Z,2.30
2018-05-24T18:55:53.207Z,2.07
2018-05-24T18:58:21.472Z,2.60
2018-05-24T19:00:50.483Z,2.73
2018-05-24T19:03:18.730Z,3.23
2018-05-24T19:05:46.979Z,3.43
2018-05-24T19:08:15.228Z,1.17
2018-05-24T19:10:43.479Z,1.07
2018-05-24T19:13:11.722Z,1.67
2018-05-24T19:15:39.966Z,2.37
2018-05-24T19:18:08.216Z,2.53
2018-05-24T19:20:36.459Z,1.87
2018-05-24T19:23:05.471Z,4.60
2018-05-24T19:25:33.723Z,3.47
2018-05-24T19:28:01.972Z,2.47
2018-05-24T19:30:30.216Z,2.67
2018-05-24T19:32:58.469Z,2.43
2018-05-24T19:35:27.471Z,1.83
2018-05-24T19:37:55.731Z,4.73
2018-05-24T19:40:24.746Z,3.90
2018-05-24T19:42:52.998Z,2.10
2018-05-24T19:45:22.008Z,4.70
2018-05-24T19:47:50.264Z,2.73
2018-05-24T19:50:19.295Z,2.57
2018-05-24T19:52:47.519Z,2.03
2018-05-24T19:55:15.765Z,3.40
2018-05-24T19:57:44.008Z,3.07
2018-05-24T20:00:12.249Z,3.17
2018-05-24T20:02:40.495Z,1.63
2018-05-24T20:05:08.749Z,1.97
2018-05-24T20:07:36.988Z,3.23
2018-05-24T20:10:05.999Z,2.70
2018-05-24T20:12:34.245Z,3.90
2018-05-24T20:15:03.252Z,2.30
2018-05-24T20:17:32.269Z,3.13
2018-05-24T20:20:00.517Z,1.37
2018-05-24T20:22:29.520Z,2.40
2018-05-24T20:24:57.758Z,3.40
2018-05-24T20:27:26.011Z,4.83
2018-05-24T20:29:55.034Z,3.47
2018-05-24T20:32:23.284Z,2.10
2018-05-24T20:34:51.528Z,3.80
2018-05-24T20:37:19.778Z,4.03
2018-05-24T20:39:48.786Z,4.40
2018-05-24T20:42:17.034Z,2.33
2018-05-24T20:44:46.051Z,3.47
2018-05-24T20:47:14.290Z,3.23
2018-05-24T20:49:42.543Z,3.03
2018-05-24T20:52:10.796Z,4.90
2018-05-24T20:54:39.044Z,2.33
2018-05-24T20:57:08.047Z,5.70
2018-05-24T20:59:36.299Z,4.60
2018-05-24T21:02:05.318Z,3.50
2018-05-24T21:04:33.570Z,4.50
2018-05-24T21:07:02.630Z,2.93
2018-05-24T21:09:31.588Z,2.00
2018-05-24T21:11:59.833Z,3.50
2018-05-24T21:14:28.852Z,4.23
2018-05-24T21:16:57.088Z,3.67
2018-05-24T21:19:25.354Z,4.07
2018-05-24T21:21:53.591Z,2.73
2018-05-24T21:24:21.855Z,3.73
2018-05-24T21:26:50.096Z,3.70
2018-05-24T21:29:18.346Z,3.07
2018-05-24T21:31:46.589Z,3.20
2018-05-24T21:34:14.843Z,4.13
2018-05-24T21:36:43.852Z,5.03
2018-05-24T21:39:12.100Z,2.90
2018-05-24T21:41:41.109Z,4.97
2018-05-24T21:44:09.347Z,4.70
2018-05-24T21:46:37.599Z,3.00
2018-05-24T21:49:05.843Z,3.80
2018-05-24T21:51:34.089Z,2.50
2018-05-24T21:54:02.322Z,2.13
2018-05-24T21:56:30.574Z,5.60
2018-05-24T21:58:58.822Z,4.43
2018-05-24T22:01:27.069Z,5.37
2018-05-24T22:03:55.319Z,3.33
2018-05-24T22:06:23.566Z,5.13
2018-05-24T22:08:51.814Z,3.30
2018-05-24T22:11:20.061Z,3.33
2018-05-24T22:13:48.304Z,4.63
2018-05-24T22:16:16.561Z,5.70
2018-05-24T22:18:45.567Z,3.83
2018-05-24T22:21:13.820Z,3.13
2018-05-24T22:23:42.064Z,2.80
2018-05-24T22:26:10.307Z,6.13
2018-05-24T22:28:38.554Z,4.07
2018-05-24T22:31:06.795Z,2.20
2018-05-24T22:33:35.043Z,5.13
2018-05-24T22:39:01.195Z,4.73
2018-05-24T22:41:29.441Z,2.87
2018-05-24T22:43:58.470Z,5.33
2018-05-24T22:46:26.718Z,5.40
2018-05-24T22:48:55.749Z,5.27
2018-05-24T22:51:24.001Z,2.33
2018-05-24T22:53:52.249Z,3.43
2018-05-24T22:56:21.275Z,3.27
2018-05-24T22:58:49.533Z,3.37
2018-05-24T23:01:18.548Z,3.37
2018-05-24T23:03:46.807Z,4.33
2018-05-24T23:06:20.381Z,4.73
2018-05-24T23:08:50.138Z,3.03
2018-05-24T23:11:18.388Z,4.33
2018-05-24T23:13:47.404Z,5.00
2018-05-24T23:16:15.655Z,3.97
2018-05-24T23:18:44.688Z,2.40
2018-05-24T23:21:12.939Z,4.30
2018-05-24T23:23:41.185Z,2.87
2018-05-24T23:26:10.213Z,3.40
2018-05-24T23:28:38.461Z,2.43
2018-05-24T23:31:07.487Z,2.13
2018-05-24T23:33:35.732Z,2.93
2018-05-24T23:36:04.777Z,3.37
2018-05-24T23:38:33.023Z,2.53
2018-05-24T23:41:02.281Z,3.07
2018-05-24T23:43:30.525Z,6.43
2018-05-24T23:45:58.816Z,3.67
2018-05-24T23:48:27.042Z,3.50
2018-05-24T23:50:55.301Z,3.83
2018-05-24T23:53:24.321Z,5.03
2018-05-24T23:55:52.572Z,3.83
2018-05-24T23:58:21.592Z,4.03
